Time;durP1;ratioP1;P1;durP2;ratioP2;P2;SDS_P1;SDS_P2;PMS_P1;PMS_P2;Temp;Humidity;BMP_temperature;BMP_pressure;BME280_temperature;BME280_humidity;BME280_pressure;Samples;Min_cycle;Max_cycle;Signal;HPM_P1;HPM_P2
2021/10/12 00:00:09;;;;;;;20.92;10.80;;;;;;;9.08;81.45;97596.98;1788507;80;21109;-74
2021/10/12 00:02:44;;;;;;;16.07;10.65;;;;;;;9.06;81.80;97591.74;1787623;80;21033;-73
2021/10/12 00:05:13;;;;;;;17.75;10.48;;;;;;;9.04;80.89;97590.94;1788210;80;21625;-72
2021/10/12 00:07:40;;;;;;;18.62;11.33;;;;;;;9.02;83.17;97591.45;1787496;80;21360;-74
2021/10/12 00:10:08;;;;;;;20.55;10.75;;;;;;;8.99;81.35;97582.28;1787839;80;21399;-72
2021/10/12 00:12:39;;;;;;;17.52;10.32;;;;;;;8.97;81.09;97582.31;1787983;80;21021;-76
2021/10/12 00:15:08;;;;;;;17.27;10.28;;;;;;;8.97;81.17;97582.80;1788018;80;21645;-72
2021/10/12 00:17:34;;;;;;;19.95;11.38;;;;;;;8.95;81.03;97577.99;1787731;80;20985;-72
2021/10/12 00:20:03;;;;;;;20.05;11.40;;;;;;;8.92;83.06;97574.11;1787933;80;21065;-73
2021/10/12 00:22:31;;;;;;;19.23;10.60;;;;;;;8.93;82.14;97570.58;1789427;80;21020;-73
2021/10/12 00:24:59;;;;;;;18.70;10.55;;;;;;;8.92;81.31;97574.11;1788415;80;21091;-73
2021/10/12 00:27:28;;;;;;;17.57;10.82;;;;;;;8.89;81.39;97571.09;1764172;80;21703;-74
2021/10/12 00:29:57;;;;;;;15.85;10.45;;;;;;;8.87;81.69;97562.81;1788290;80;21558;-74
2021/10/12 00:32:25;;;;;;;16.62;10.35;;;;;;;8.89;81.37;97561.84;1787967;80;21001;-73
2021/10/12 00:34:53;;;;;;;16.27;10.95;;;;;;;8.90;81.50;97560.97;1788575;80;20946;-73
2021/10/12 00:37:21;;;;;;;15.98;9.28;;;;;;;8.91;81.94;97562.69;1788475;80;21412;-73
2021/10/12 00:39:50;;;;;;;13.35;9.40;;;;;;;8.93;82.83;97556.89;1789350;79;20998;-73
2021/10/12 00:42:17;;;;;;;16.07;9.88;;;;;;;8.96;82.11;97546.68;1789452;80;21032;-74
2021/10/12 00:44:45;;;;;;;17.45;9.93;;;;;;;8.99;82.54;97550.56;1738046;80;20999;-73
2021/10/12 00:47:13;;;;;;;17.70;10.08;;;;;;;9.03;82.52;97548.23;1740958;82;21018;-73
2021/10/12 00:49:42;;;;;;;16.62;9.63;;;;;;;9.05;82.57;97549.05;1742735;81;20999;-74
2021/10/12 00:52:12;;;;;;;17.57;9.88;;;;;;;9.05;83.12;97539.80;1742839;82;21063;-73
2021/10/12 00:54:40;;;;;;;14.93;9.40;;;;;;;9.04;83.29;97547.32;1742831;82;21000;-73
2021/10/12 00:57:07;;;;;;;16.40;9.43;;;;;;;9.05;83.20;97542.91;1711745;84;21039;-73
2021/10/12 00:59:36;;;;;;;15.23;9.08;;;;;;;9.04;84.50;97533.23;1733861;81;20983;-72
2021/10/12 01:02:03;;;;;;;15.98;9.70;;;;;;;9.06;83.45;97528.30;1714913;84;21033;-73
2021/10/12 01:04:34;;;;;;;15.88;8.43;;;;;;;9.08;83.82;97535.75;1771602;81;20974;-73
2021/10/12 01:07:02;;;;;;;13.22;8.75;;;;;;;9.14;83.63;97531.17;1807422;79;21735;-73
2021/10/12 01:09:31;;;;;;;13.72;8.73;;;;;;;9.15;83.52;97528.49;1772019;80;21021;-73
2021/10/12 01:12:00;;;;;;;13.88;9.65;;;;;;;9.16;83.68;97532.86;1771896;79;20984;-73
2021/10/12 01:14:30;;;;;;;15.48;10.05;;;;;;;9.16;83.71;97529.34;1785696;80;20996;-73
2021/10/12 01:16:57;;;;;;;14.93;9.88;;;;;;;9.14;83.57;97520.16;1794049;79;21031;-72
2021/10/12 01:19:25;;;;;;;14.50;9.95;;;;;;;9.12;83.69;97523.29;1783361;80;21079;-73
2021/10/12 01:21:56;;;;;;;18.65;10.35;;;;;;;9.08;83.55;97519.88;1775210;81;21063;-72
2021/10/12 01:24:24;;;;;;;18.02;9.93;;;;;;;9.04;83.21;97515.60;1775206;81;21020;-72
2021/10/12 01:26:54;;;;;;;19.57;10.03;;;;;;;9.02;83.49;97516.12;1775139;81;21019;-73
2021/10/12 01:29:21;;;;;;;17.92;10.72;;;;;;;8.99;83.24;97512.23;1775220;81;21031;-73
2021/10/12 01:31:51;;;;;;;19.52;10.80;;;;;;;8.95;83.33;97506.19;1771363;81;21026;-73
2021/10/12 01:34:20;;;;;;;18.23;11.08;;;;;;;8.94;84.10;97500.50;1775645;81;20964;-73
2021/10/12 01:36:50;;;;;;;16.17;10.55;;;;;;;8.93;83.48;97501.39;1747030;81;21413;-73
2021/10/12 01:39:20;;;;;;;17.67;11.17;;;;;;;8.95;83.49;97497.38;1721003;82;21046;-72
2021/10/12 01:41:47;;;;;;;16.48;10.55;;;;;;;8.95;84.52;97493.42;1715671;84;21480;-72
2021/10/12 01:44:19;;;;;;;18.48;10.75;;;;;;;8.96;84.08;97493.82;1750023;81;21053;-73
2021/10/12 01:46:48;;;;;;;17.62;10.65;;;;;;;8.95;83.61;97492.97;1774675;79;21475;-73
2021/10/12 01:49:15;;;;;;;22.45;11.83;;;;;;;8.94;83.75;97489.93;1774868;80;21380;-73
2021/10/12 01:51:43;;;;;;;21.57;12.05;;;;;;;8.91;83.75;97490.45;1774315;81;21014;-73
2021/10/12 01:54:22;;;;;;;20.82;11.80;;;;;;;8.85;83.20;97481.81;1790091;80;22228;-73
2021/10/12 01:56:52;;;;;;;19.73;11.70;;;;;;;8.81;85.11;97478.84;1762641;81;20952;-73
2021/10/12 01:59:20;;;;;;;18.30;12.03;;;;;;;8.80;84.10;97482.88;1795801;79;20981;-73
2021/10/12 02:01:50;;;;;;;19.05;12.07;;;;;;;8.77;84.28;97473.27;1795495;80;21000;-73
2021/10/12 02:04:16;;;;;;;21.00;13.45;;;;;;;8.75;83.84;97479.05;1824264;78;21020;-73
2021/10/12 02:06:43;;;;;;;17.75;11.22;;;;;;;8.71;83.65;97471.67;1822954;78;21047;-73
2021/10/12 02:09:09;;;;;;;18.98;12.73;;;;;;;8.69;83.80;97472.16;1824486;78;20968;-73
2021/10/12 02:11:36;;;;;;;20.75;13.98;;;;;;;8.68;84.40;97457.23;1791915;79;21004;-74
2021/10/12 02:14:04;;;;;;;21.77;12.73;;;;;;;8.68;84.04;97461.19;1790598;79;21024;-73
2021/10/12 02:16:31;;;;;;;22.15;11.90;;;;;;;8.67;84.73;97466.07;1790628;80;21070;-73
2021/10/12 02:18:57;;;;;;;19.15;12.63;;;;;;;8.69;84.55;97464.23;1790449;80;21450;-73
2021/10/12 02:21:24;;;;;;;21.05;13.18;;;;;;;8.73;84.82;97458.87;1790306;80;21059;-73
2021/10/12 02:23:50;;;;;;;17.42;12.13;;;;;;;8.75;85.23;97460.55;1790338;80;21055;-73
2021/10/12 02:26:17;;;;;;;20.82;13.08;;;;;;;8.76;84.68;97463.59;1790327;80;21425;-73
2021/10/12 02:28:43;;;;;;;19.73;13.18;;;;;;;8.77;84.70;97464.03;1820542;79;21034;-73
2021/10/12 02:31:10;;;;;;;20.20;11.70;;;;;;;8.80;84.46;97460.42;1824467;79;21020;-73
2021/10/12 02:33:36;;;;;;;18.23;12.23;;;;;;;8.81;83.97;97460.34;1824541;78;20972;-73
2021/10/12 02:36:03;;;;;;;20.15;11.70;;;;;;;8.82;84.22;97454.17;1824008;79;21006;-73
2021/10/12 02:38:30;;;;;;;17.85;11.12;;;;;;;8.83;84.19;97455.91;1810698;78;20952;-73
2021/10/12 02:40:56;;;;;;;22.02;12.37;;;;;;;8.86;84.75;97450.98;1807199;79;20985;-73
2021/10/12 02:43:23;;;;;;;18.62;10.70;;;;;;;8.91;84.41;97449.05;1823738;79;20996;-73
2021/10/12 02:45:50;;;;;;;16.50;11.18;;;;;;;8.98;84.65;97446.61;1819474;78;20978;-73
2021/10/12 02:48:17;;;;;;;16.57;10.38;;;;;;;9.02;84.83;97444.75;1819647;78;21512;-73
2021/10/12 02:50:44;;;;;;;17.73;11.00;;;;;;;9.04;84.79;97445.55;1819547;78;20961;-73
2021/10/12 02:53:11;;;;;;;20.35;10.55;;;;;;;9.06;84.97;97439.75;1800471;78;21007;-74
2021/10/12 02:55:38;;;;;;;16.87;9.88;;;;;;;9.08;85.21;97439.70;1787360;80;20988;-73
2021/10/12 02:58:05;;;;;;;19.27;11.05;;;;;;;9.10;85.47;97440.06;1767011;81;20968;-73
2021/10/12 03:00:33;;;;;;;17.40;10.60;;;;;;;9.13;85.42;97440.42;1787510;80;21018;-73
2021/10/12 03:02:59;;;;;;;19.52;10.75;;;;;;;9.12;85.57;97429.44;1766949;80;21373;-73
2021/10/12 03:05:26;;;;;;;18.65;11.50;;;;;;;9.10;85.68;97429.48;1786534;80;21012;-72
2021/10/12 03:07:52;;;;;;;16.55;10.28;;;;;;;9.14;85.92;97439.97;1813650;79;20973;-72
2021/10/12 03:10:19;;;;;;;16.82;11.38;;;;;;;9.17;85.90;97428.83;1819111;78;20980;-72
2021/10/12 03:12:46;;;;;;;16.82;11.12;;;;;;;9.23;85.87;97429.94;1819145;79;20996;-72
2021/10/12 03:15:12;;;;;;;15.60;10.78;;;;;;;9.24;85.64;97429.50;1819059;79;21004;-73
2021/10/12 03:17:39;;;;;;;16.12;10.60;;;;;;;9.21;85.62;97422.53;1815351;79;21038;-73
2021/10/12 03:20:07;;;;;;;17.65;11.55;;;;;;;9.17;85.55;97422.70;1791987;79;20987;-73
2021/10/12 03:22:34;;;;;;;14.87;10.68;;;;;;;9.13;85.48;97420.59;1819083;79;21102;-73
2021/10/12 03:25:00;;;;;;;17.67;11.88;;;;;;;9.07;85.63;97418.16;1818775;79;21059;-73
2021/10/12 03:27:27;;;;;;;18.45;11.55;;;;;;;9.00;85.37;97419.28;1794216;79;21375;-73
2021/10/12 03:29:54;;;;;;;19.73;12.63;;;;;;;8.94;85.93;97420.34;1819240;79;20968;-73
2021/10/12 03:32:20;;;;;;;19.02;10.78;;;;;;;8.90;86.28;97419.58;1819180;79;20996;-74
2021/10/12 03:34:46;;;;;;;17.75;10.75;;;;;;;8.84;86.50;97419.75;1804935;79;20932;-73
2021/10/12 03:37:13;;;;;;;15.98;10.80;;;;;;;8.79;86.72;97416.39;1786961;80;21616;-73
2021/10/12 03:39:40;;;;;;;18.52;11.35;;;;;;;8.66;88.54;97416.80;1766616;81;21013;-73
2021/10/12 03:42:06;;;;;;;15.65;9.90;;;;;;;8.58;86.88;97419.68;1787311;79;20978;-73
2021/10/12 03:44:33;;;;;;;12.68;8.63;;;;;;;8.50;86.58;97419.01;1788280;78;21409;-73
2021/10/12 03:46:59;;;;;;;14.87;9.83;;;;;;;8.46;86.22;97413.41;1762150;81;20983;-73
2021/10/12 03:49:26;;;;;;;14.90;9.43;;;;;;;8.37;88.02;97411.92;1810504;79;21006;-73
2021/10/12 03:51:52;;;;;;;15.32;9.33;;;;;;;8.31;87.92;97408.15;1823791;79;21291;-73
2021/10/12 03:54:19;;;;;;;20.25;12.75;;;;;;;8.26;86.53;97414.02;1823629;79;20952;-73
2021/10/12 03:56:45;;;;;;;31.27;18.90;;;;;;;8.21;86.45;97409.34;1823806;79;20984;-73
2021/10/12 03:59:12;;;;;;;13.83;9.08;;;;;;;8.17;86.56;97407.22;1823579;78;21023;-73
2021/10/12 04:01:38;;;;;;;13.95;9.33;;;;;;;8.13;86.96;97405.13;1823768;79;20980;-73
2021/10/12 04:04:05;;;;;;;15.43;10.08;;;;;;;8.11;86.47;97410.05;1822969;79;20972;-73
2021/10/12 04:06:31;;;;;;;14.25;8.73;;;;;;;8.08;86.33;97402.20;1823770;78;20995;-73
2021/10/12 04:08:58;;;;;;;17.92;9.83;;;;;;;8.06;86.77;97403.13;1803876;79;21016;-73
2021/10/12 04:11:25;;;;;;;12.63;9.03;;;;;;;8.04;86.54;97406.27;1790312;80;21055;-73
2021/10/12 04:13:52;;;;;;;15.03;8.88;;;;;;;8.01;86.98;97398.43;1789644;80;21445;-73
2021/10/12 04:16:18;;;;;;;13.68;9.45;;;;;;;7.98;87.46;97398.54;1791651;79;20965;-73
2021/10/12 04:18:45;;;;;;;15.10;9.25;;;;;;;7.95;87.23;97395.98;1814901;79;20984;-73
2021/10/12 04:21:11;;;;;;;17.75;9.25;;;;;;;7.95;86.92;97398.62;1790803;80;20999;-73
2021/10/12 04:23:38;;;;;;;13.28;8.58;;;;;;;7.96;87.41;97396.38;1791525;80;21027;-73
2021/10/12 04:26:09;;;;;;;12.55;8.15;;;;;;;7.96;89.24;97395.50;1791555;79;21006;-73
2021/10/12 04:28:34;;;;;;;11.63;8.10;;;;;;;7.96;88.23;97393.74;1763781;81;21044;-73
2021/10/12 04:31:00;;;;;;;11.65;8.38;;;;;;;7.97;88.40;97394.14;1792103;80;20999;-73
2021/10/12 04:33:27;;;;;;;11.65;7.95;;;;;;;8.00;87.99;97393.20;1781855;80;21017;-73
2021/10/12 04:35:53;;;;;;;13.08;8.45;;;;;;;8.02;87.74;97396.20;1793283;79;20940;-73
2021/10/12 04:38:20;;;;;;;13.05;8.38;;;;;;;8.06;88.10;97391.24;1767245;81;20942;-73
2021/10/12 04:40:46;;;;;;;11.65;7.40;;;;;;;8.08;88.03;97391.65;1793621;79;21418;-73
2021/10/12 04:43:13;;;;;;;12.37;8.13;;;;;;;8.09;88.00;97389.45;1796367;79;21270;-73
2021/10/12 04:45:40;;;;;;;10.90;7.47;;;;;;;8.12;88.23;97392.85;1746975;81;21052;-73
2021/10/12 04:48:07;;;;;;;12.58;7.65;;;;;;;8.15;88.14;97391.42;1763593;81;21039;-73
2021/10/12 04:50:34;;;;;;;10.28;7.53;;;;;;;8.17;88.41;97390.94;1743835;82;21425;-73
2021/10/12 04:53:01;;;;;;;18.30;8.48;;;;;;;8.19;88.23;97393.53;1749283;81;21054;-73
2021/10/12 04:55:30;;;;;;;13.20;8.15;;;;;;;8.21;88.02;97386.42;1797228;80;21008;-73
2021/10/12 04:57:58;;;;;;;11.48;7.87;;;;;;;8.21;88.54;97379.83;1795079;80;21004;-74
2021/10/12 05:00:25;;;;;;;12.63;7.83;;;;;;;8.26;88.59;97386.30;1781918;80;20976;-74
2021/10/12 05:02:52;;;;;;;13.88;7.95;;;;;;;8.28;88.43;97387.11;1771864;81;21035;-73
2021/10/12 05:05:18;;;;;;;13.20;8.15;;;;;;;8.23;88.72;97384.63;1772297;81;20972;-73
2021/10/12 05:07:44;;;;;;;12.55;7.85;;;;;;;8.18;88.60;97382.58;1772190;81;21018;-75
2021/10/12 05:10:11;;;;;;;13.88;7.35;;;;;;;8.15;88.93;97383.98;1746972;81;21484;-72
2021/10/12 05:12:38;;;;;;;12.98;7.60;;;;;;;8.09;88.11;97381.05;1748671;81;21378;-72
2021/10/12 05:15:06;;;;;;;11.25;8.25;;;;;;;8.02;88.29;97379.05;1772313;81;20991;-72
2021/10/12 05:17:46;;;;;;;11.83;8.03;;;;;;;7.95;88.30;97378.83;1772301;81;21055;-72
2021/10/12 05:20:08;;;;;;;14.13;8.78;;;;;;;7.92;87.74;97381.55;1797505;80;21088;-72
2021/10/12 05:22:34;;;;;;;13.03;8.40;;;;;;;7.86;87.68;97388.33;1794973;80;21046;-73
2021/10/12 05:25:01;;;;;;;14.90;9.23;;;;;;;7.81;87.90;97381.88;1774748;81;21476;-73
2021/10/12 05:27:27;;;;;;;16.93;8.78;;;;;;;7.75;87.72;97386.86;1775203;80;21036;-73
2021/10/12 05:29:54;;;;;;;11.97;8.05;;;;;;;7.70;88.00;97391.84;1751916;80;21022;-73
2021/10/12 05:32:20;;;;;;;12.28;8.13;;;;;;;7.66;89.72;97390.62;1732152;82;21537;-73
2021/10/12 05:34:47;;;;;;;11.73;8.10;;;;;;;7.62;89.18;97394.25;1740977;82;20972;-73
2021/10/12 05:37:13;;;;;;;15.80;8.93;;;;;;;7.64;88.73;97395.53;1740424;82;21012;-73
2021/10/12 05:39:39;;;;;;;13.55;8.45;;;;;;;7.63;88.25;97398.61;1740006;82;20976;-73
2021/10/12 05:42:07;;;;;;;16.90;9.05;;;;;;;7.61;88.53;97397.80;1766659;80;21011;-74
2021/10/12 05:44:34;;;;;;;12.28;8.35;;;;;;;7.59;88.12;97399.59;1776558;78;21003;-74
2021/10/12 05:47:00;;;;;;;16.25;9.23;;;;;;;7.58;88.66;97400.95;1775322;81;21444;-74
2021/10/12 05:49:27;;;;;;;10.95;7.75;;;;;;;7.58;88.27;97406.22;1791483;80;20983;-74
2021/10/12 05:51:53;;;;;;;12.85;8.28;;;;;;;7.54;88.30;97404.13;1775408;81;22205;-74
2021/10/12 05:54:20;;;;;;;12.05;8.10;;;;;;;7.53;88.55;97411.64;1791114;80;21015;-74
2021/10/12 05:56:54;;;;;;;13.65;8.23;;;;;;;7.52;89.10;97409.44;1736747;82;21037;-74
2021/10/12 05:59:15;;;;;;;11.88;8.53;;;;;;;7.53;88.87;97407.20;1773572;79;21016;-74
2021/10/12 06:01:43;;;;;;;12.40;8.53;;;;;;;7.57;89.29;97408.02;1745428;82;21522;-74
2021/10/12 06:04:10;;;;;;;13.88;8.90;;;;;;;7.60;89.16;97405.27;1745464;82;21442;-74
2021/10/12 06:06:36;;;;;;;16.40;9.50;;;;;;;7.60;90.86;97407.91;1745370;82;21040;-74
2021/10/12 06:09:03;;;;;;;14.35;9.18;;;;;;;7.62;91.23;97402.60;1745483;82;20985;-74
2021/10/12 06:11:30;;;;;;;12.63;8.98;;;;;;;7.63;89.42;97410.92;1745303;82;21078;-74
2021/10/12 06:13:56;;;;;;;12.43;8.13;;;;;;;7.64;89.76;97410.03;1776220;81;20984;-74
2021/10/12 06:16:23;;;;;;;13.75;8.33;;;;;;;7.67;88.88;97408.61;1776056;81;21496;-74
2021/10/12 06:18:50;;;;;;;13.62;8.78;;;;;;;7.72;90.29;97408.51;1766307;81;20987;-73
2021/10/12 06:21:16;;;;;;;12.90;8.15;;;;;;;7.73;89.79;97411.08;1766337;81;21445;-73
2021/10/12 06:23:43;;;;;;;12.25;9.05;;;;;;;7.79;91.02;97411.37;1781121;80;20972;-73
2021/10/12 06:26:10;;;;;;;10.95;7.85;;;;;;;7.84;90.45;97412.58;1759490;81;21397;-74
2021/10/12 06:28:37;;;;;;;10.93;7.45;;;;;;;7.89;90.38;97415.95;1743773;82;21017;-73
2021/10/12 06:31:06;;;;;;;9.80;6.83;;;;;;;7.91;90.19;97416.31;1744100;82;20977;-74
2021/10/12 06:33:33;;;;;;;11.48;6.78;;;;;;;7.97;89.25;97413.94;1760399;81;22112;-74
2021/10/12 06:36:00;;;;;;;9.10;7.10;;;;;;;8.00;89.88;97415.19;1760414;81;21000;-73
2021/10/12 06:38:26;;;;;;;7.03;5.35;;;;;;;8.04;91.87;97406.27;1760302;81;21004;-73
2021/10/12 06:40:53;;;;;;;9.70;5.70;;;;;;;8.06;90.05;97415.00;1760324;81;20984;-74
2021/10/12 06:43:20;;;;;;;6.72;5.00;;;;;;;8.04;91.78;97410.67;1769320;79;20990;-74
2021/10/12 06:45:46;;;;;;;8.68;5.60;;;;;;;8.05;89.75;97405.80;1767152;80;21015;-74
2021/10/12 06:48:13;;;;;;;9.75;6.08;;;;;;;8.09;90.23;97406.59;1758681;81;20996;-74
2021/10/12 06:50:39;;;;;;;7.78;5.78;;;;;;;8.14;90.10;97408.65;1763189;80;21014;-74
2021/10/12 06:53:06;;;;;;;8.75;5.80;;;;;;;8.21;90.65;97408.86;1789795;80;20988;-74
2021/10/12 06:55:33;;;;;;;7.53;5.62;;;;;;;8.28;90.53;97414.83;1789716;80;20975;-74
2021/10/12 06:58:00;;;;;;;6.53;5.10;;;;;;;8.30;89.85;97417.83;1801742;79;21047;-73
2021/10/12 07:00:27;;;;;;;7.35;4.72;;;;;;;8.35;90.80;97425.60;1786349;80;21347;-73
2021/10/12 07:02:54;;;;;;;8.48;6.37;;;;;;;8.36;91.30;97426.48;1778960;81;21040;-73
2021/10/12 07:05:20;;;;;;;7.65;5.22;;;;;;;8.34;91.68;97428.31;1789750;79;22178;-73
2021/10/12 07:07:47;;;;;;;6.60;4.67;;;;;;;8.35;90.88;97432.20;1763721;81;21011;-73
2021/10/12 07:10:15;;;;;;;7.30;5.50;;;;;;;8.36;90.25;97426.03;1796420;78;20975;-73
2021/10/12 07:12:43;;;;;;;7.12;4.75;;;;;;;8.32;90.42;97427.03;1795195;80;21394;-72
2021/10/12 07:15:11;;;;;;;7.35;5.22;;;;;;;8.32;90.73;97424.39;1789215;78;20953;-73
2021/10/12 07:17:42;;;;;;;6.42;5.15;;;;;;;8.35;91.09;97415.05;1795597;79;20987;-73
2021/10/12 07:20:08;;;;;;;6.30;4.58;;;;;;;8.38;90.10;97411.47;1785901;80;20996;-74
2021/10/12 07:22:36;;;;;;;6.08;3.77;;;;;;;8.32;89.46;97407.23;1812251;79;20946;-74
2021/10/12 07:25:06;;;;;;;6.17;4.10;;;;;;;8.30;89.18;97413.88;1803773;79;20987;-73
2021/10/12 07:27:35;;;;;;;8.53;6.00;;;;;;;8.23;89.32;97417.63;1778567;79;21410;-73
2021/10/12 07:30:03;;;;;;;5.92;4.72;;;;;;;8.25;89.72;97414.91;1791344;79;20957;-74
2021/10/12 07:32:30;;;;;;;5.87;4.62;;;;;;;8.25;89.19;97410.95;1763900;81;21434;-73
2021/10/12 07:34:56;;;;;;;7.22;4.42;;;;;;;8.27;89.24;97411.31;1791516;80;21438;-73
2021/10/12 07:37:23;;;;;;;7.72;4.50;;;;;;;8.23;90.10;97410.14;1764020;80;21028;-74
2021/10/12 07:39:49;;;;;;;8.33;4.75;;;;;;;8.24;89.60;97408.78;1781821;79;21411;-73
2021/10/12 07:42:16;;;;;;;7.03;4.90;;;;;;;8.28;89.58;97410.87;1759275;80;21000;-72
2021/10/12 07:44:42;;;;;;;6.45;4.78;;;;;;;8.32;89.30;97415.16;1789139;80;21135;-73
2021/10/12 07:47:09;;;;;;;10.10;5.05;;;;;;;8.32;89.89;97419.95;1765984;81;21388;-73
2021/10/12 07:49:37;;;;;;;7.40;5.20;;;;;;;8.27;89.70;97412.63;1766538;81;21013;-72
2021/10/12 07:52:07;;;;;;;6.90;4.60;;;;;;;8.27;88.98;97409.15;1788750;80;21083;-73
2021/10/12 07:54:46;;;;;;;7.12;4.53;;;;;;;8.29;90.61;97413.91;1781685;79;21009;-72
2021/10/12 07:57:15;;;;;;;7.28;4.65;;;;;;;8.27;89.44;97406.51;1807242;79;21023;-73
2021/10/12 07:59:43;;;;;;;6.85;5.05;;;;;;;8.28;89.77;97406.47;1807158;79;20991;-72
2021/10/12 08:02:12;;;;;;;6.20;4.47;;;;;;;8.29;90.21;97412.59;1807187;79;20999;-72
2021/10/12 08:04:40;;;;;;;9.18;5.25;;;;;;;8.32;89.66;97413.36;1787841;79;21045;-72
2021/10/12 08:07:07;;;;;;;7.30;5.20;;;;;;;8.35;89.03;97407.59;1774163;81;21034;-72
2021/10/12 08:09:35;;;;;;;5.58;4.25;;;;;;;8.41;90.10;97414.00;1782980;79;21445;-72
2021/10/12 08:12:06;;;;;;;8.15;4.60;;;;;;;8.46;90.09;97405.48;1770897;79;21407;-72
2021/10/12 08:14:38;;;;;;;6.72;4.15;;;;;;;8.51;90.03;97404.04;1771374;80;20958;-72
2021/10/12 08:17:02;;;;;;;5.65;4.33;;;;;;;8.51;89.32;97404.88;1773120;81;21026;-74
2021/10/12 08:19:30;;;;;;;7.00;3.72;;;;;;;8.52;88.35;97401.36;1774702;81;20962;-75
2021/10/12 08:21:56;;;;;;;7.30;4.42;;;;;;;8.52;88.80;97401.36;1775647;81;20978;-73
2021/10/12 08:24:23;;;;;;;4.67;3.95;;;;;;;8.53;88.77;97399.59;1788339;79;21416;-73
2021/10/12 08:26:50;;;;;;;5.37;4.35;;;;;;;8.61;88.18;97398.91;1807002;79;21027;-74
2021/10/12 08:29:18;;;;;;;5.87;4.08;;;;;;;8.71;88.11;97393.73;1807089;79;20960;-73
2021/10/12 08:31:47;;;;;;;6.60;4.33;;;;;;;8.82;88.40;97387.24;1807583;79;21019;-73
2021/10/12 08:34:16;;;;;;;6.17;4.15;;;;;;;8.91;88.33;97391.36;1807092;79;20991;-72
2021/10/12 08:36:43;;;;;;;5.55;3.75;;;;;;;8.97;88.47;97384.09;1806982;79;21441;-73
2021/10/12 08:39:09;;;;;;;4.78;3.65;;;;;;;8.96;88.75;97385.02;1783323;79;21003;-74
2021/10/12 08:41:54;;;;;;;5.60;4.30;;;;;;;9.02;88.82;97383.96;1774772;81;21042;-73
2021/10/12 08:44:20;;;;;;;6.42;4.28;;;;;;;9.04;89.08;97387.84;1771524;81;21038;-74
2021/10/12 08:46:49;;;;;;;6.22;3.50;;;;;;;9.11;88.97;97382.30;1775169;81;21037;-74
2021/10/12 08:49:15;;;;;;;6.10;3.87;;;;;;;9.12;88.97;97376.57;1775443;81;20997;-78
2021/10/12 08:51:44;;;;;;;6.15;4.33;;;;;;;9.09;88.87;97380.63;1781782;79;20912;-72
2021/10/12 08:54:12;;;;;;;4.45;3.45;;;;;;;9.03;87.80;97383.04;1778205;79;21035;-72
2021/10/12 08:56:39;;;;;;;5.90;2.90;;;;;;;9.02;88.09;97371.19;1775477;81;21085;-73
2021/10/12 08:59:06;;;;;;;3.92;3.25;;;;;;;9.00;87.67;97375.20;1775496;81;21079;-73
2021/10/12 09:01:58;;;;;;;4.22;3.50;;;;;;;8.99;87.93;97373.48;1775405;81;21433;-73
2021/10/12 09:04:37;;;;;;;4.62;3.60;;;;;;;8.88;89.25;97372.50;1775402;81;21056;-78
2021/10/12 09:07:16;;;;;;;5.53;3.22;;;;;;;8.92;89.48;97377.22;1785670;79;21418;-74
2021/10/12 09:09:44;;;;;;;3.98;3.02;;;;;;;8.93;89.44;97381.14;1762494;81;20975;-74
2021/10/12 09:12:12;;;;;;;5.12;3.35;;;;;;;8.88;89.44;97380.91;1773697;81;21018;-74
2021/10/12 09:14:58;;;;;;;5.72;3.08;;;;;;;8.84;88.94;97369.11;1773721;81;20995;-75
2021/10/12 09:17:35;;;;;;;4.50;3.67;;;;;;;8.83;89.16;97370.47;1773421;81;20963;-73
2021/10/12 09:20:13;;;;;;;4.83;2.77;;;;;;;8.86;89.11;97369.06;1774852;79;21015;-78
2021/10/12 09:23:09;;;;;;;4.30;3.33;;;;;;;8.87;88.86;97363.30;1774969;81;21070;-74
2021/10/12 09:25:42;;;;;;;4.17;2.95;;;;;;;8.82;88.65;97363.02;1775903;81;21046;-74
2021/10/12 09:28:27;;;;;;;3.58;2.98;;;;;;;8.72;89.79;97357.59;1775839;81;21039;-74
2021/10/12 09:30:56;;;;;;;3.33;2.62;;;;;;;8.62;89.82;97356.17;1775172;81;21083;-73
2021/10/12 09:33:23;;;;;;;3.83;3.25;;;;;;;8.60;89.25;97348.32;1787114;78;21620;-73
2021/10/12 09:35:49;;;;;;;4.00;2.72;;;;;;;8.61;91.05;97350.05;1767073;81;20971;-74
2021/10/12 09:38:16;;;;;;;3.95;2.55;;;;;;;8.64;90.96;97353.05;1794456;80;21110;-74
2021/10/12 09:40:46;;;;;;;3.27;2.60;;;;;;;8.66;89.75;97352.52;1794851;80;20999;-73
2021/10/12 09:43:18;;;;;;;3.37;2.72;;;;;;;8.69;89.87;97349.31;1794624;80;20956;-74
2021/10/12 09:45:47;;;;;;;3.50;2.40;;;;;;;8.78;89.15;97349.94;1793868;80;21035;-73
2021/10/12 09:48:28;;;;;;;3.52;2.40;;;;;;;8.82;90.40;97352.89;1805737;79;22039;-73
2021/10/12 09:51:14;;;;;;;2.75;2.33;;;;;;;8.88;89.09;97355.33;1823763;79;21614;-73
2021/10/12 09:53:44;;;;;;;3.85;2.00;;;;;;;8.92;90.12;97345.06;1801851;78;20995;-73
2021/10/12 09:56:13;;;;;;;2.12;1.55;;;;;;;8.91;88.66;97341.14;1804873;79;21011;-73
2021/10/12 09:58:43;;;;;;;2.15;1.60;;;;;;;8.94;87.44;97337.97;1811179;79;20925;-79
2021/10/12 10:01:12;;;;;;;2.62;1.80;;;;;;;8.95;87.60;97336.17;1792577;79;20973;-74
2021/10/12 10:03:40;;;;;;;2.70;1.70;;;;;;;9.04;88.06;97328.38;1762706;81;21063;-75
2021/10/12 10:06:17;;;;;;;2.20;1.37;;;;;;;9.04;87.48;97339.83;1789583;80;21008;-75
2021/10/12 10:08:52;;;;;;;1.82;1.55;;;;;;;9.06;87.55;97322.12;1791904;79;21016;-75
2021/10/12 10:11:23;;;;;;;2.30;1.60;;;;;;;9.11;86.63;97322.82;1770254;80;21099;-75
2021/10/12 10:13:50;;;;;;;3.83;1.50;;;;;;;9.15;86.72;97325.37;1765984;80;20980;-74
2021/10/12 10:16:17;;;;;;;1.52;1.20;;;;;;;9.13;86.21;97325.42;1773598;79;21033;-80
2021/10/12 10:18:47;;;;;;;2.65;1.37;;;;;;;9.13;85.90;97325.42;1787506;80;20976;-81
2021/10/12 10:21:14;;;;;;;2.47;1.40;;;;;;;9.14;85.82;97322.33;1764071;80;21019;-74
2021/10/12 10:23:54;;;;;;;2.62;1.50;;;;;;;9.21;85.74;97327.80;1806172;79;20948;-80
2021/10/12 10:26:26;;;;;;;2.33;1.67;;;;;;;9.17;85.39;97328.37;1818622;79;20988;-74
2021/10/12 10:28:55;;;;;;;2.17;1.60;;;;;;;9.14;86.10;97326.30;1765391;80;21004;-81
2021/10/12 10:31:40;;;;;;;2.05;1.70;;;;;;;9.12;85.31;97330.31;1797916;79;20962;-74
2021/10/12 10:34:32;;;;;;;3.00;2.10;;;;;;;8.96;85.33;97333.92;1791402;79;21005;-74
2021/10/12 10:37:22;;;;;;;2.72;1.90;;;;;;;8.91;85.54;97328.81;1762902;80;20980;-74
2021/10/12 10:39:57;;;;;;;3.22;2.20;;;;;;;8.73;85.24;97322.81;1800679;79;21479;-81
2021/10/12 10:42:46;;;;;;;3.95;1.92;;;;;;;8.73;85.46;97326.33;1757700;80;21009;-81
2021/10/12 10:45:13;;;;;;;2.72;2.00;;;;;;;8.76;85.58;97322.72;1783623;79;21041;-75
2021/10/12 10:47:47;;;;;;;2.90;2.50;;;;;;;8.82;85.38;97320.74;1788821;80;21001;-75
2021/10/12 10:50:33;;;;;;;3.22;2.20;;;;;;;8.90;85.29;97316.52;1791324;80;21107;-83
2021/10/12 10:53:06;;;;;;;2.77;2.10;;;;;;;8.96;85.44;97311.46;1790370;79;21022;-78
2021/10/12 10:55:42;;;;;;;3.47;2.58;;;;;;;9.06;85.79;97312.02;1788128;80;21006;-83
2021/10/12 10:58:19;;;;;;;3.52;2.60;;;;;;;9.17;86.43;97300.61;1786318;80;21042;-78
2021/10/12 11:00:53;;;;;;;3.45;2.47;;;;;;;9.29;85.75;97301.08;1788261;80;21005;-76
2021/10/12 11:03:35;;;;;;;3.35;2.85;;;;;;;9.40;85.66;97300.27;1755486;80;21548;-81
2021/10/12 11:06:15;;;;;;;4.97;2.70;;;;;;;9.46;85.67;97301.35;1744296;82;21008;-75
2021/10/12 11:09:03;;;;;;;2.87;2.55;;;;;;;9.53;85.96;97287.45;1743947;82;21030;-81
2021/10/12 11:11:36;;;;;;;4.75;3.10;;;;;;;9.65;85.76;97298.04;1730486;81;21031;-80
2021/10/12 11:14:04;;;;;;;4.55;2.65;;;;;;;9.71;85.45;97291.66;1739556;81;21448;-80
2021/10/12 11:16:37;;;;;;;5.42;3.72;;;;;;;9.69;84.42;97290.84;1764485;81;21062;-82
2021/10/12 11:19:05;;;;;;;3.72;2.83;;;;;;;9.59;84.81;97295.15;1760559;81;20951;-81
2021/10/12 11:21:34;;;;;;;3.92;3.00;;;;;;;9.56;84.73;97290.44;1789261;80;21390;-81
2021/10/12 11:24:03;;;;;;;3.87;2.92;;;;;;;9.55;84.51;97290.04;1792574;80;20975;-79
2021/10/12 11:26:31;;;;;;;4.35;2.85;;;;;;;9.57;84.97;97285.09;1766929;80;20928;-75
2021/10/12 11:29:03;;;;;;;4.58;3.20;;;;;;;9.58;84.38;97289.46;1789523;80;20970;-75
2021/10/12 11:31:31;;;;;;;5.00;3.12;;;;;;;9.51;83.80;97277.40;1770161;81;20971;-76
2021/10/12 11:34:02;;;;;;;7.30;3.92;;;;;;;9.52;82.98;97281.76;1786477;80;21037;-76
2021/10/12 11:36:32;;;;;;;7.33;3.75;;;;;;;9.56;83.17;97271.48;1789403;80;21016;-76
2021/10/12 11:39:06;;;;;;;7.53;4.28;;;;;;;9.57;83.64;97271.00;1790163;80;20985;-76
2021/10/12 11:41:38;;;;;;;5.72;3.55;;;;;;;9.53;82.77;97272.02;1790307;80;20994;-76